sensor_id;sensor_type;location;lat;lon;timestamp;P1;durP1;ratioP1;P2;durP2;ratioP2
21569;SDS011;57598;50.888;4.746;2022-09-13T00:01:14;28.70;;;27.10;;
21569;SDS011;57598;50.888;4.746;2022-09-13T00:03:41;28.55;;;26.95;;
21569;SDS011;57598;50.888;4.746;2022-09-13T00:06:09;28.95;;;27.35;;
21569;SDS011;57598;50.888;4.746;2022-09-13T00:08:38;28.80;;;27.20;;
21569;SDS011;57598;50.888;4.746;2022-09-13T00:11:05;29.10;;;27.50;;
21569;SDS011;57598;50.888;4.746;2022-09-13T00:13:34;29.10;;;27.50;;
21569;SDS011;57598;50.888;4.746;2022-09-13T00:16:01;29.42;;;27.73;;
21569;SDS011;57598;50.888;4.746;2022-09-13T00:18:29;28.98;;;27.38;;
21569;SDS011;57598;50.888;4.746;2022-09-13T00:21:05;30.02;;;28.33;;
21569;SDS011;57598;50.888;4.746;2022-09-13T00:23:34;30.80;;;29.10;;
21569;SDS011;57598;50.888;4.746;2022-09-13T00:26:03;30.67;;;28.92;;
21569;SDS011;57598;50.888;4.746;2022-09-13T00:28:33;31.38;;;29.58;;
21569;SDS011;57598;50.888;4.746;2022-09-13T00:31:01;31.20;;;29.40;;
21569;SDS011;57598;50.888;4.746;2022-09-13T00:33:29;32.22;;;30.33;;
21569;SDS011;57598;50.888;4.746;2022-09-13T00:35:56;31.60;;;29.80;;
21569;SDS011;57598;50.888;4.746;2022-09-13T00:38:22;30.98;;;29.27;;
21569;SDS011;57598;50.888;4.746;2022-09-13T00:40:50;32.15;;;30.35;;
21569;SDS011;57598;50.888;4.746;2022-09-13T00:43:17;31.45;;;29.65;;
21569;SDS011;57598;50.888;4.746;2022-09-13T00:45:47;31.65;;;29.85;;
21569;SDS011;57598;50.888;4.746;2022-09-13T00:48:16;31.02;;;29.30;;
21569;SDS011;57598;50.888;4.746;2022-09-13T00:50:49;31.45;;;29.65;;
21569;SDS011;57598;50.888;4.746;2022-09-13T00:53:19;31.77;;;29.98;;
21569;SDS011;57598;50.888;4.746;2022-09-13T00:55:50;31.23;;;29.52;;
21569;SDS011;57598;50.888;4.746;2022-09-13T00:58:22;31.73;;;29.92;;
21569;SDS011;57598;50.888;4.746;2022-09-13T01:00:55;30.80;;;29.10;;
21569;SDS011;57598;50.888;4.746;2022-09-13T01:03:24;30.70;;;29.00;;
21569;SDS011;57598;50.888;4.746;2022-09-13T01:05:54;31.25;;;29.52;;
21569;SDS011;57598;50.888;4.746;2022-09-13T01:08:25;30.23;;;28.52;;
21569;SDS011;57598;50.888;4.746;2022-09-13T01:10:56;30.55;;;28.85;;
21569;SDS011;57598;50.888;4.746;2022-09-13T01:13:26;30.60;;;28.90;;
21569;SDS011;57598;50.888;4.746;2022-09-13T01:15:58;29.80;;;28.10;;
21569;SDS011;57598;50.888;4.746;2022-09-13T01:18:26;30.50;;;28.70;;
21569;SDS011;57598;50.888;4.746;2022-09-13T01:21:03;28.95;;;27.35;;
21569;SDS011;57598;50.888;4.746;2022-09-13T01:23:58;29.80;;;28.10;;
21569;SDS011;57598;50.888;4.746;2022-09-13T01:26:53;30.13;;;28.42;;
21569;SDS011;57598;50.888;4.746;2022-09-13T01:29:44;30.48;;;28.77;;
21569;SDS011;57598;50.888;4.746;2022-09-13T01:35:39;32.15;;;30.35;;
21569;SDS011;57598;50.888;4.746;2022-09-13T01:38:16;30.85;;;29.15;;
21569;SDS011;57598;50.888;4.746;2022-09-13T01:40:59;31.30;;;29.50;;
21569;SDS011;57598;50.888;4.746;2022-09-13T01:43:38;29.88;;;28.17;;
21569;SDS011;57598;50.888;4.746;2022-09-13T01:46:17;31.20;;;29.40;;
21569;SDS011;57598;50.888;4.746;2022-09-13T01:48:52;30.30;;;28.60;;
21569;SDS011;57598;50.888;4.746;2022-09-13T01:51:26;30.02;;;28.33;;
21569;SDS011;57598;50.888;4.746;2022-09-13T01:53:58;30.17;;;28.48;;
21569;SDS011;57598;50.888;4.746;2022-09-13T01:56:39;29.95;;;28.25;;
21569;SDS011;57598;50.888;4.746;2022-09-13T01:59:14;30.10;;;28.40;;
21569;SDS011;57598;50.888;4.746;2022-09-13T02:04:16;30.17;;;28.48;;
21569;SDS011;57598;50.888;4.746;2022-09-13T02:06:48;30.30;;;28.60;;
21569;SDS011;57598;50.888;4.746;2022-09-13T02:11:48;30.50;;;28.80;;
21569;SDS011;57598;50.888;4.746;2022-09-13T02:14:19;30.13;;;28.42;;
21569;SDS011;57598;50.888;4.746;2022-09-13T02:16:51;30.42;;;28.73;;
21569;SDS011;57598;50.888;4.746;2022-09-13T02:19:23;30.50;;;28.80;;
21569;SDS011;57598;50.888;4.746;2022-09-13T02:21:56;31.23;;;29.42;;
21569;SDS011;57598;50.888;4.746;2022-09-13T02:24:27;31.23;;;29.42;;
21569;SDS011;57598;50.888;4.746;2022-09-13T02:26:58;31.45;;;29.65;;
21569;SDS011;57598;50.888;4.746;2022-09-13T02:29:28;31.77;;;29.98;;
21569;SDS011;57598;50.888;4.746;2022-09-13T02:32:00;31.05;;;29.35;;
21569;SDS011;57598;50.888;4.746;2022-09-13T02:34:32;31.25;;;29.45;;
21569;SDS011;57598;50.888;4.746;2022-09-13T02:37:02;31.08;;;29.27;;
21569;SDS011;57598;50.888;4.746;2022-09-13T02:39:32;31.52;;;29.73;;
21569;SDS011;57598;50.888;4.746;2022-09-13T02:42:03;32.63;;;30.73;;
21569;SDS011;57598;50.888;4.746;2022-09-13T02:44:37;33.42;;;31.52;;
21569;SDS011;57598;50.888;4.746;2022-09-13T02:47:10;33.00;;;31.10;;
21569;SDS011;57598;50.888;4.746;2022-09-13T02:49:48;34.15;;;32.15;;
21569;SDS011;57598;50.888;4.746;2022-09-13T02:52:25;33.65;;;31.73;;
21569;SDS011;57598;50.888;4.746;2022-09-13T02:55:01;33.85;;;31.95;;
21569;SDS011;57598;50.888;4.746;2022-09-13T02:57:38;34.33;;;32.33;;
21569;SDS011;57598;50.888;4.746;2022-09-13T03:02:37;33.67;;;31.77;;
21569;SDS011;57598;50.888;4.746;2022-09-13T03:05:08;34.22;;;32.22;;
21569;SDS011;57598;50.888;4.746;2022-09-13T03:07:35;33.22;;;31.33;;
21569;SDS011;57598;50.888;4.746;2022-09-13T03:10:02;32.83;;;30.92;;
21569;SDS011;57598;50.888;4.746;2022-09-13T03:12:37;32.60;;;30.70;;
21569;SDS011;57598;50.888;4.746;2022-09-13T03:15:19;31.63;;;29.83;;
21569;SDS011;57598;50.888;4.746;2022-09-13T03:18:01;30.75;;;29.05;;
21569;SDS011;57598;50.888;4.746;2022-09-13T03:20:39;31.17;;;29.45;;
21569;SDS011;57598;50.888;4.746;2022-09-13T03:23:23;31.13;;;29.33;;
21569;SDS011;57598;50.888;4.746;2022-09-13T03:28:53;30.83;;;29.02;;
21569;SDS011;57598;50.888;4.746;2022-09-13T03:31:31;30.73;;;29.00;;
21569;SDS011;57598;50.888;4.746;2022-09-13T03:34:06;31.50;;;29.70;;
21569;SDS011;57598;50.888;4.746;2022-09-13T03:36:38;30.77;;;29.08;;
21569;SDS011;57598;50.888;4.746;2022-09-13T03:39:10;31.05;;;29.25;;
21569;SDS011;57598;50.888;4.746;2022-09-13T03:41:41;30.58;;;28.88;;
21569;SDS011;57598;50.888;4.746;2022-09-13T03:46:41;30.42;;;28.73;;
21569;SDS011;57598;50.888;4.746;2022-09-13T03:49:11;30.67;;;28.98;;
21569;SDS011;57598;50.888;4.746;2022-09-13T03:51:40;31.30;;;29.50;;
21569;SDS011;57598;50.888;4.746;2022-09-13T03:54:11;31.65;;;29.85;;
21569;SDS011;57598;50.888;4.746;2022-09-13T03:56:42;32.53;;;30.63;;
21569;SDS011;57598;50.888;4.746;2022-09-13T03:59:09;31.83;;;30.02;;
21569;SDS011;57598;50.888;4.746;2022-09-13T04:01:36;31.20;;;29.48;;
21569;SDS011;57598;50.888;4.746;2022-09-13T04:04:03;31.13;;;29.33;;
21569;SDS011;57598;50.888;4.746;2022-09-13T04:06:31;31.42;;;29.63;;
21569;SDS011;57598;50.888;4.746;2022-09-13T04:08:58;31.10;;;29.40;;
21569;SDS011;57598;50.888;4.746;2022-09-13T04:11:25;31.88;;;30.08;;
21569;SDS011;57598;50.888;4.746;2022-09-13T04:13:54;32.90;;;31.00;;
21569;SDS011;57598;50.888;4.746;2022-09-13T04:16:21;31.73;;;29.92;;
21569;SDS011;57598;50.888;4.746;2022-09-13T04:18:48;31.75;;;29.95;;
21569;SDS011;57598;50.888;4.746;2022-09-13T04:21:15;30.77;;;29.08;;
21569;SDS011;57598;50.888;4.746;2022-09-13T04:23:44;32.10;;;30.30;;
21569;SDS011;57598;50.888;4.746;2022-09-13T04:26:15;32.13;;;30.33;;
21569;SDS011;57598;50.888;4.746;2022-09-13T04:28:42;31.55;;;29.75;;
21569;SDS011;57598;50.888;4.746;2022-09-13T04:31:09;30.85;;;29.15;;
21569;SDS011;57598;50.888;4.746;2022-09-13T04:33:36;29.80;;;28.20;;
21569;SDS011;57598;50.888;4.746;2022-09-13T04:36:03;30.25;;;28.55;;
21569;SDS011;57598;50.888;4.746;2022-09-13T04:38:30;31.80;;;30.00;;
21569;SDS011;57598;50.888;4.746;2022-09-13T04:40:58;30.27;;;28.58;;
21569;SDS011;57598;50.888;4.746;2022-09-13T04:43:26;30.20;;;28.50;;
21569;SDS011;57598;50.888;4.746;2022-09-13T04:45:53;31.63;;;29.83;;
21569;SDS011;57598;50.888;4.746;2022-09-13T04:48:20;33.35;;;31.45;;
21569;SDS011;57598;50.888;4.746;2022-09-13T04:50:47;31.23;;;29.52;;
21569;SDS011;57598;50.888;4.746;2022-09-13T04:53:14;32.08;;;30.17;;
21569;SDS011;57598;50.888;4.746;2022-09-13T04:55:41;33.13;;;31.23;;
21569;SDS011;57598;50.888;4.746;2022-09-13T04:58:10;31.88;;;30.08;;
21569;SDS011;57598;50.888;4.746;2022-09-13T05:00:37;34.13;;;32.22;;
21569;SDS011;57598;50.888;4.746;2022-09-13T05:03:04;31.30;;;29.55;;
21569;SDS011;57598;50.888;4.746;2022-09-13T05:05:31;31.70;;;29.90;;
21569;SDS011;57598;50.888;4.746;2022-09-13T05:07:58;33.17;;;31.27;;
21569;SDS011;57598;50.888;4.746;2022-09-13T05:10:25;34.20;;;32.30;;
21569;SDS011;57598;50.888;4.746;2022-09-13T05:12:52;32.78;;;30.98;;
21569;SDS011;57598;50.888;4.746;2022-09-13T05:15:21;33.42;;;31.52;;
21569;SDS011;57598;50.888;4.746;2022-09-13T05:17:48;31.02;;;29.33;;
21569;SDS011;57598;50.888;4.746;2022-09-13T05:20:15;30.75;;;29.05;;
21569;SDS011;57598;50.888;4.746;2022-09-13T05:22:42;31.67;;;29.88;;
21569;SDS011;57598;50.888;4.746;2022-09-13T05:27:44;31.63;;;29.80;;
21569;SDS011;57598;50.888;4.746;2022-09-13T05:30:11;31.25;;;29.55;;
21569;SDS011;57598;50.888;4.746;2022-09-13T05:32:42;30.65;;;28.95;;
21569;SDS011;57598;50.888;4.746;2022-09-13T05:35:09;32.67;;;30.88;;
21569;SDS011;57598;50.888;4.746;2022-09-13T05:37:37;32.50;;;30.70;;
21569;SDS011;57598;50.888;4.746;2022-09-13T05:40:05;31.73;;;29.92;;
21569;SDS011;57598;50.888;4.746;2022-09-13T05:42:33;32.38;;;30.58;;
21569;SDS011;57598;50.888;4.746;2022-09-13T05:45:00;32.28;;;30.45;;
21569;SDS011;57598;50.888;4.746;2022-09-13T05:47:27;33.08;;;31.20;;
21569;SDS011;57598;50.888;4.746;2022-09-13T05:49:55;33.05;;;31.15;;
21569;SDS011;57598;50.888;4.746;2022-09-13T05:52:22;33.67;;;31.67;;
21569;SDS011;57598;50.888;4.746;2022-09-13T05:54:50;33.13;;;31.23;;
21569;SDS011;57598;50.888;4.746;2022-09-13T05:57:17;34.47;;;32.47;;
21569;SDS011;57598;50.888;4.746;2022-09-13T05:59:44;34.85;;;32.85;;
21569;SDS011;57598;50.888;4.746;2022-09-13T06:02:12;34.00;;;32.10;;
21569;SDS011;57598;50.888;4.746;2022-09-13T06:04:39;33.05;;;31.15;;
21569;SDS011;57598;50.888;4.746;2022-09-13T06:07:10;32.83;;;31.02;;
21569;SDS011;57598;50.888;4.746;2022-09-13T06:09:37;33.05;;;31.15;;
21569;SDS011;57598;50.888;4.746;2022-09-13T06:12:05;31.98;;;30.17;;
21569;SDS011;57598;50.888;4.746;2022-09-13T06:14:32;32.80;;;31.00;;
21569;SDS011;57598;50.888;4.746;2022-09-13T06:16:59;32.50;;;30.70;;
21569;SDS011;57598;50.888;4.746;2022-09-13T06:19:27;32.53;;;30.67;;
21569;SDS011;57598;50.888;4.746;2022-09-13T06:21:54;31.83;;;29.95;;
21569;SDS011;57598;50.888;4.746;2022-09-13T06:24:22;32.67;;;30.77;;
21569;SDS011;57598;50.888;4.746;2022-09-13T06:26:50;32.17;;;30.38;;
21569;SDS011;57598;50.888;4.746;2022-09-13T06:29:18;32.97;;;31.08;;
21569;SDS011;57598;50.888;4.746;2022-09-13T06:31:45;31.27;;;29.58;;
21569;SDS011;57598;50.888;4.746;2022-09-13T06:34:12;32.28;;;30.48;;
21569;SDS011;57598;50.888;4.746;2022-09-13T06:36:40;32.38;;;30.58;;
21569;SDS011;57598;50.888;4.746;2022-09-13T06:39:07;31.35;;;29.65;;
21569;SDS011;57598;50.888;4.746;2022-09-13T06:41:36;32.42;;;30.63;;
21569;SDS011;57598;50.888;4.746;2022-09-13T06:44:03;32.35;;;30.55;;
21569;SDS011;57598;50.888;4.746;2022-09-13T06:46:31;30.75;;;29.05;;
21569;SDS011;57598;50.888;4.746;2022-09-13T06:49:00;31.88;;;30.08;;
21569;SDS011;57598;50.888;4.746;2022-09-13T06:51:29;31.02;;;29.33;;
21569;SDS011;57598;50.888;4.746;2022-09-13T06:53:57;30.42;;;28.73;;
21569;SDS011;57598;50.888;4.746;2022-09-13T06:56:25;29.75;;;28.13;;
21569;SDS011;57598;50.888;4.746;2022-09-13T06:58:57;30.80;;;29.10;;
21569;SDS011;57598;50.888;4.746;2022-09-13T07:01:25;30.15;;;28.45;;
21569;SDS011;57598;50.888;4.746;2022-09-13T07:04:17;29.58;;;27.95;;
21569;SDS011;57598;50.888;4.746;2022-09-13T07:06:45;29.63;;;27.98;;
21569;SDS011;57598;50.888;4.746;2022-09-13T07:09:14;29.30;;;27.70;;
21569;SDS011;57598;50.888;4.746;2022-09-13T07:11:42;29.10;;;27.50;;
21569;SDS011;57598;50.888;4.746;2022-09-13T07:14:13;29.52;;;27.92;;
21569;SDS011;57598;50.888;4.746;2022-09-13T07:19:11;27.80;;;26.30;;
21569;SDS011;57598;50.888;4.746;2022-09-13T07:21:40;27.13;;;25.63;;
21569;SDS011;57598;50.888;4.746;2022-09-13T07:24:07;25.00;;;23.60;;
21569;SDS011;57598;50.888;4.746;2022-09-13T07:26:35;22.90;;;21.60;;
21569;SDS011;57598;50.888;4.746;2022-09-13T07:29:03;22.25;;;21.05;;
21569;SDS011;57598;50.888;4.746;2022-09-13T07:31:38;23.58;;;22.17;;
21569;SDS011;57598;50.888;4.746;2022-09-13T07:34:10;20.85;;;19.65;;
21569;SDS011;57598;50.888;4.746;2022-09-13T07:36:42;19.70;;;18.60;;
21569;SDS011;57598;50.888;4.746;2022-09-13T07:39:11;18.70;;;17.60;;
21569;SDS011;57598;50.888;4.746;2022-09-13T07:41:42;18.52;;;17.45;;
21569;SDS011;57598;50.888;4.746;2022-09-13T07:44:11;18.55;;;17.45;;
21569;SDS011;57598;50.888;4.746;2022-09-13T07:46:48;18.88;;;17.77;;
21569;SDS011;57598;50.888;4.746;2022-09-13T07:49:16;18.95;;;17.85;;
21569;SDS011;57598;50.888;4.746;2022-09-13T07:51:45;19.15;;;18.05;;
21569;SDS011;57598;50.888;4.746;2022-09-13T07:54:16;19.60;;;18.50;;
21569;SDS011;57598;50.888;4.746;2022-09-13T07:56:44;18.95;;;17.85;;
21569;SDS011;57598;50.888;4.746;2022-09-13T07:59:14;19.45;;;18.35;;
21569;SDS011;57598;50.888;4.746;2022-09-13T08:01:44;19.75;;;18.55;;
21569;SDS011;57598;50.888;4.746;2022-09-13T08:04:14;19.55;;;18.45;;
21569;SDS011;57598;50.888;4.746;2022-09-13T08:06:43;19.13;;;18.03;;
21569;SDS011;57598;50.888;4.746;2022-09-13T08:09:11;19.13;;;18.02;;
21569;SDS011;57598;50.888;4.746;2022-09-13T08:11:39;19.05;;;17.95;;
21569;SDS011;57598;50.888;4.746;2022-09-13T08:14:08;18.88;;;17.77;;
21569;SDS011;57598;50.888;4.746;2022-09-13T08:16:36;19.05;;;17.90;;
21569;SDS011;57598;50.888;4.746;2022-09-13T08:19:05;19.38;;;18.27;;
21569;SDS011;57598;50.888;4.746;2022-09-13T08:21:35;20.15;;;19.05;;
21569;SDS011;57598;50.888;4.746;2022-09-13T08:24:05;19.10;;;18.00;;
21569;SDS011;57598;50.888;4.746;2022-09-13T08:26:34;19.98;;;18.83;;
21569;SDS011;57598;50.888;4.746;2022-09-13T08:29:02;18.67;;;17.58;;
21569;SDS011;57598;50.888;4.746;2022-09-13T08:31:32;19.65;;;18.55;;
21569;SDS011;57598;50.888;4.746;2022-09-13T08:37:15;19.73;;;18.63;;
21569;SDS011;57598;50.888;4.746;2022-09-13T08:39:42;19.58;;;18.48;;
21569;SDS011;57598;50.888;4.746;2022-09-13T08:42:18;19.05;;;17.95;;
21569;SDS011;57598;50.888;4.746;2022-09-13T08:44:52;19.08;;;17.98;;
21569;SDS011;57598;50.888;4.746;2022-09-13T08:50:13;20.08;;;18.98;;
21569;SDS011;57598;50.888;4.746;2022-09-13T08:52:47;19.13;;;18.02;;
21569;SDS011;57598;50.888;4.746;2022-09-13T08:55:23;18.70;;;17.60;;
21569;SDS011;57598;50.888;4.746;2022-09-13T08:57:55;19.02;;;17.92;;
21569;SDS011;57598;50.888;4.746;2022-09-13T09:00:30;19.52;;;18.42;;
21569;SDS011;57598;50.888;4.746;2022-09-13T09:03:06;19.42;;;18.33;;
21569;SDS011;57598;50.888;4.746;2022-09-13T09:05:48;19.63;;;18.52;;
21569;SDS011;57598;50.888;4.746;2022-09-13T09:08:22;19.75;;;18.55;;
21569;SDS011;57598;50.888;4.746;2022-09-13T09:10:55;18.77;;;17.67;;
21569;SDS011;57598;50.888;4.746;2022-09-13T09:13:33;19.50;;;18.40;;
21569;SDS011;57598;50.888;4.746;2022-09-13T09:16:21;19.85;;;18.75;;
21569;SDS011;57598;50.888;4.746;2022-09-13T09:18:56;20.10;;;19.00;;
21569;SDS011;57598;50.888;4.746;2022-09-13T09:21:29;21.50;;;20.10;;
21569;SDS011;57598;50.888;4.746;2022-09-13T09:23:59;21.90;;;20.65;;
21569;SDS011;57598;50.888;4.746;2022-09-13T09:26:29;21.80;;;20.58;;
21569;SDS011;57598;50.888;4.746;2022-09-13T09:28:57;21.80;;;20.60;;
21569;SDS011;57598;50.888;4.746;2022-09-13T09:31:27;20.90;;;19.70;;
21569;SDS011;57598;50.888;4.746;2022-09-13T09:34:03;20.55;;;19.35;;
21569;SDS011;57598;50.888;4.746;2022-09-13T09:39:15;20.83;;;19.63;;
21569;SDS011;57598;50.888;4.746;2022-09-13T09:41:43;21.05;;;19.85;;
21569;SDS011;57598;50.888;4.746;2022-09-13T09:44:15;20.73;;;19.52;;
21569;SDS011;57598;50.888;4.746;2022-09-13T09:46:47;20.50;;;19.30;;
21569;SDS011;57598;50.888;4.746;2022-09-13T09:49:19;19.60;;;18.50;;
21569;SDS011;57598;50.888;4.746;2022-09-13T09:52:09;21.58;;;20.38;;
21569;SDS011;57598;50.888;4.746;2022-09-13T09:54:42;19.85;;;18.75;;
21569;SDS011;57598;50.888;4.746;2022-09-13T09:57:10;20.00;;;18.90;;
21569;SDS011;57598;50.888;4.746;2022-09-13T09:59:39;22.30;;;20.90;;
21569;SDS011;57598;50.888;4.746;2022-09-13T10:02:12;19.83;;;18.73;;
21569;SDS011;57598;50.888;4.746;2022-09-13T10:04:41;19.85;;;18.75;;
21569;SDS011;57598;50.888;4.746;2022-09-13T10:07:10;19.60;;;18.50;;
21569;SDS011;57598;50.888;4.746;2022-09-13T10:12:28;20.45;;;19.25;;
21569;SDS011;57598;50.888;4.746;2022-09-13T10:15:05;20.83;;;19.30;;
21569;SDS011;57598;50.888;4.746;2022-09-13T10:17:42;19.98;;;18.88;;
21569;SDS011;57598;50.888;4.746;2022-09-13T10:20:29;19.85;;;18.75;;
21569;SDS011;57598;50.888;4.746;2022-09-13T10:26:02;20.67;;;19.50;;
21569;SDS011;57598;50.888;4.746;2022-09-13T10:31:40;20.05;;;18.95;;
21569;SDS011;57598;50.888;4.746;2022-09-13T10:34:36;20.30;;;19.10;;
21569;SDS011;57598;50.888;4.746;2022-09-13T10:37:31;18.98;;;17.88;;
21569;SDS011;57598;50.888;4.746;2022-09-13T10:40:14;19.20;;;18.10;;
21569;SDS011;57598;50.888;4.746;2022-09-13T10:42:58;19.88;;;18.77;;
21569;SDS011;57598;50.888;4.746;2022-09-13T10:45:31;19.10;;;18.00;;
21569;SDS011;57598;50.888;4.746;2022-09-13T10:48:03;20.70;;;19.50;;
21569;SDS011;57598;50.888;4.746;2022-09-13T10:50:45;19.23;;;18.13;;
21569;SDS011;57598;50.888;4.746;2022-09-13T10:53:36;19.42;;;18.33;;
21569;SDS011;57598;50.888;4.746;2022-09-13T10:56:04;19.25;;;18.15;;
21569;SDS011;57598;50.888;4.746;2022-09-13T10:58:46;18.70;;;17.60;;
21569;SDS011;57598;50.888;4.746;2022-09-13T11:01:16;19.70;;;18.60;;
21569;SDS011;57598;50.888;4.746;2022-09-13T11:09:56;19.75;;;18.65;;
21569;SDS011;57598;50.888;4.746;2022-09-13T11:12:30;19.27;;;18.17;;
21569;SDS011;57598;50.888;4.746;2022-09-13T11:15:06;19.17;;;18.08;;
21569;SDS011;57598;50.888;4.746;2022-09-13T11:20:35;19.85;;;18.75;;
21569;SDS011;57598;50.888;4.746;2022-09-13T11:23:11;20.48;;;19.27;;
21569;SDS011;57598;50.888;4.746;2022-09-13T11:26:04;20.80;;;19.60;;
21569;SDS011;57598;50.888;4.746;2022-09-13T11:28:49;19.75;;;18.65;;
21569;SDS011;57598;50.888;4.746;2022-09-13T11:31:37;20.73;;;19.52;;
21569;SDS011;57598;50.888;4.746;2022-09-13T11:34:22;19.77;;;18.67;;
21569;SDS011;57598;50.888;4.746;2022-09-13T11:40:16;19.92;;;18.83;;
21569;SDS011;57598;50.888;4.746;2022-09-13T11:42:53;20.00;;;18.90;;
21569;SDS011;57598;50.888;4.746;2022-09-13T11:45:33;20.00;;;18.90;;
21569;SDS011;57598;50.888;4.746;2022-09-13T11:48:37;19.35;;;18.25;;
21569;SDS011;57598;50.888;4.746;2022-09-13T11:51:19;18.90;;;17.80;;
21569;SDS011;57598;50.888;4.746;2022-09-13T11:54:24;18.75;;;17.65;;
21569;SDS011;57598;50.888;4.746;2022-09-13T11:57:09;19.20;;;18.10;;
21569;SDS011;57598;50.888;4.746;2022-09-13T11:59:44;18.30;;;17.27;;
21569;SDS011;57598;50.888;4.746;2022-09-13T12:02:23;18.80;;;17.70;;
21569;SDS011;57598;50.888;4.746;2022-09-13T12:07:51;18.08;;;17.08;;
21569;SDS011;57598;50.888;4.746;2022-09-13T12:10:23;18.65;;;17.55;;
21569;SDS011;57598;50.888;4.746;2022-09-13T12:12:55;19.20;;;18.10;;
21569;SDS011;57598;50.888;4.746;2022-09-13T12:15:28;19.58;;;18.48;;
21569;SDS011;57598;50.888;4.746;2022-09-13T12:18:01;19.73;;;18.63;;
21569;SDS011;57598;50.888;4.746;2022-09-13T12:20:34;20.10;;;18.98;;
21569;SDS011;57598;50.888;4.746;2022-09-13T12:23:06;17.98;;;16.98;;
21569;SDS011;57598;50.888;4.746;2022-09-13T12:25:43;18.70;;;17.60;;
21569;SDS011;57598;50.888;4.746;2022-09-13T12:28:22;18.13;;;17.13;;
21569;SDS011;57598;50.888;4.746;2022-09-13T12:31:03;17.90;;;16.90;;
21569;SDS011;57598;50.888;4.746;2022-09-13T12:33:39;19.75;;;18.65;;
21569;SDS011;57598;50.888;4.746;2022-09-13T12:36:28;18.95;;;17.85;;
21569;SDS011;57598;50.888;4.746;2022-09-13T12:42:22;18.60;;;17.50;;
21569;SDS011;57598;50.888;4.746;2022-09-13T12:45:17;18.33;;;17.30;;
21569;SDS011;57598;50.888;4.746;2022-09-13T12:51:13;18.30;;;17.25;;
21569;SDS011;57598;50.888;4.746;2022-09-13T12:53:59;18.35;;;17.33;;
21569;SDS011;57598;50.888;4.746;2022-09-13T12:56:50;17.58;;;16.58;;
21569;SDS011;57598;50.888;4.746;2022-09-13T12:59:43;17.67;;;16.67;;
21569;SDS011;57598;50.888;4.746;2022-09-13T13:02:32;18.15;;;17.13;;
21569;SDS011;57598;50.888;4.746;2022-09-13T13:05:03;17.75;;;16.75;;
21569;SDS011;57598;50.888;4.746;2022-09-13T13:07:33;17.10;;;16.10;;
21569;SDS011;57598;50.888;4.746;2022-09-13T13:10:04;18.75;;;17.65;;
21569;SDS011;57598;50.888;4.746;2022-09-13T13:12:32;19.15;;;18.05;;
21569;SDS011;57598;50.888;4.746;2022-09-13T13:15:02;17.15;;;16.15;;
21569;SDS011;57598;50.888;4.746;2022-09-13T13:17:39;18.10;;;17.10;;
21569;SDS011;57598;50.888;4.746;2022-09-13T13:23:13;18.60;;;17.50;;
21569;SDS011;57598;50.888;4.746;2022-09-13T13:25:57;18.10;;;17.10;;
21569;SDS011;57598;50.888;4.746;2022-09-13T13:28:49;19.25;;;18.15;;
21569;SDS011;57598;50.888;4.746;2022-09-13T13:31:38;21.27;;;20.08;;
21569;SDS011;57598;50.888;4.746;2022-09-13T13:34:29;21.15;;;19.95;;
21569;SDS011;57598;50.888;4.746;2022-09-13T13:37:02;20.52;;;19.42;;
21569;SDS011;57598;50.888;4.746;2022-09-13T13:39:32;20.33;;;19.13;;
21569;SDS011;57598;50.888;4.746;2022-09-13T13:42:12;20.05;;;18.95;;
21569;SDS011;57598;50.888;4.746;2022-09-13T13:53:40;31.90;;;30.20;;
21569;SDS011;57598;50.888;4.746;2022-09-13T13:59:14;39.38;;;37.17;;
21569;SDS011;57598;50.888;4.746;2022-09-13T14:01:48;36.85;;;34.85;;
21569;SDS011;57598;50.888;4.746;2022-09-13T14:07:13;36.13;;;34.13;;
21569;SDS011;57598;50.888;4.746;2022-09-13T14:09:56;38.33;;;36.22;;
21569;SDS011;57598;50.888;4.746;2022-09-13T14:12:36;38.22;;;36.03;;
21569;SDS011;57598;50.888;4.746;2022-09-13T14:21:36;76.45;;;72.07;;
21569;SDS011;57598;50.888;4.746;2022-09-13T14:24:07;46.60;;;43.70;;
21569;SDS011;57598;50.888;4.746;2022-09-13T14:26:48;41.45;;;39.05;;
21569;SDS011;57598;50.888;4.746;2022-09-13T14:29:32;37.60;;;35.50;;
21569;SDS011;57598;50.888;4.746;2022-09-13T14:32:09;34.10;;;32.20;;
21569;SDS011;57598;50.888;4.746;2022-09-13T14:34:49;31.20;;;29.50;;
21569;SDS011;57598;50.888;4.746;2022-09-13T14:37:19;30.40;;;28.70;;
21569;SDS011;57598;50.888;4.746;2022-09-13T14:42:20;29.00;;;27.40;;
21569;SDS011;57598;50.888;4.746;2022-09-13T14:44:50;30.95;;;29.25;;
21569;SDS011;57598;50.888;4.746;2022-09-13T14:47:21;34.40;;;32.47;;
21569;SDS011;57598;50.888;4.746;2022-09-13T14:53:55;33.35;;;31.45;;
21569;SDS011;57598;50.888;4.746;2022-09-13T14:56:35;33.90;;;32.00;;
21569;SDS011;57598;50.888;4.746;2022-09-13T14:59:11;36.42;;;34.33;;
21569;SDS011;57598;50.888;4.746;2022-09-13T15:01:42;36.97;;;34.88;;
21569;SDS011;57598;50.888;4.746;2022-09-13T15:04:33;36.78;;;34.67;;
21569;SDS011;57598;50.888;4.746;2022-09-13T15:07:21;39.65;;;37.35;;
21569;SDS011;57598;50.888;4.746;2022-09-13T15:10:48;43.08;;;40.38;;
21569;SDS011;57598;50.888;4.746;2022-09-13T15:13:09;43.90;;;41.25;;
21569;SDS011;57598;50.888;4.746;2022-09-13T15:15:43;44.88;;;42.17;;
21569;SDS011;57598;50.888;4.746;2022-09-13T15:18:22;43.42;;;40.83;;
21569;SDS011;57598;50.888;4.746;2022-09-13T15:21:23;44.53;;;41.83;;
21569;SDS011;57598;50.888;4.746;2022-09-13T15:23:54;43.47;;;40.78;;
21569;SDS011;57598;50.888;4.746;2022-09-13T15:26:23;44.38;;;41.58;;
21569;SDS011;57598;50.888;4.746;2022-09-13T15:28:51;44.08;;;41.38;;
21569;SDS011;57598;50.888;4.746;2022-09-13T15:31:21;42.25;;;39.55;;
21569;SDS011;57598;50.888;4.746;2022-09-13T15:36:39;41.13;;;38.53;;
21569;SDS011;57598;50.888;4.746;2022-09-13T15:39:12;42.90;;;40.10;;
21569;SDS011;57598;50.888;4.746;2022-09-13T15:41:50;42.00;;;39.30;;
21569;SDS011;57598;50.888;4.746;2022-09-13T15:44:18;43.92;;;41.08;;
21569;SDS011;57598;50.888;4.746;2022-09-13T15:46:46;44.13;;;41.33;;
21569;SDS011;57598;50.888;4.746;2022-09-13T15:49:17;43.95;;;41.15;;
21569;SDS011;57598;50.888;4.746;2022-09-13T15:51:48;44.25;;;41.45;;
21569;SDS011;57598;50.888;4.746;2022-09-13T15:54:19;44.45;;;41.65;;
21569;SDS011;57598;50.888;4.746;2022-09-13T15:56:47;44.17;;;41.30;;
21569;SDS011;57598;50.888;4.746;2022-09-13T15:59:16;43.50;;;40.70;;
21569;SDS011;57598;50.888;4.746;2022-09-13T16:01:46;42.92;;;40.22;;
21569;SDS011;57598;50.888;4.746;2022-09-13T16:04:14;43.67;;;40.88;;
21569;SDS011;57598;50.888;4.746;2022-09-13T16:06:42;44.38;;;41.47;;
21569;SDS011;57598;50.888;4.746;2022-09-13T16:09:11;43.58;;;40.78;;
21569;SDS011;57598;50.888;4.746;2022-09-13T16:11:43;43.88;;;41.08;;
21569;SDS011;57598;50.888;4.746;2022-09-13T16:14:10;42.00;;;39.30;;
21569;SDS011;57598;50.888;4.746;2022-09-13T16:16:38;43.28;;;40.58;;
21569;SDS011;57598;50.888;4.746;2022-09-13T16:19:05;43.40;;;40.70;;
21569;SDS011;57598;50.888;4.746;2022-09-13T16:21:37;41.72;;;39.10;;
21569;SDS011;57598;50.888;4.746;2022-09-13T16:24:04;41.90;;;39.30;;
21569;SDS011;57598;50.888;4.746;2022-09-13T16:26:33;41.88;;;39.28;;
21569;SDS011;57598;50.888;4.746;2022-09-13T16:29:04;44.30;;;41.50;;